Time;durP1;ratioP1;P1;durP2;ratioP2;P2;SDS_P1;SDS_P2;PMS_P1;PMS_P2;Temp;Humidity;BMP_temperature;BMP_pressure;BME280_temperature;BME280_humidity;BME280_pressure;Samples;Min_cycle;Max_cycle;Signal;HPM_P1;HPM_P2
2021/12/06 00:02:06;;;;;;;40.25;21.00;;;;;;;2.50;100.00;100799.00;4945381;29;20061;-81
2021/12/06 00:04:36;;;;;;;39.85;21.92;;;;;;;2.58;100.00;100819.31;4959530;29;20031;-81
2021/12/06 00:07:07;;;;;;;40.22;21.95;;;;;;;2.55;100.00;100824.84;4963146;28;20028;-82
2021/12/06 00:09:32;;;;;;;39.47;20.77;;;;;;;2.60;100.00;100827.34;4978507;28;20047;-82
2021/12/06 00:12:01;;;;;;;43.28;21.88;;;;;;;2.66;100.00;100832.47;4958877;29;20023;-81
2021/12/06 00:14:33;;;;;;;37.88;21.60;;;;;;;2.66;100.00;100839.72;4939362;29;20399;-82
2021/12/06 00:17:03;;;;;;;46.42;22.33;;;;;;;2.68;100.00;100837.81;4962438;28;20105;-82
2021/12/06 00:19:29;;;;;;;40.03;21.20;;;;;;;2.73;100.00;100849.28;4930874;29;20028;-82
2021/12/06 00:21:57;;;;;;;41.08;21.85;;;;;;;2.75;100.00;100850.06;4965621;28;20035;-81
2021/12/06 00:24:22;;;;;;;40.30;22.02;;;;;;;2.74;100.00;100848.34;4962152;28;20035;-82
2021/12/06 00:26:48;;;;;;;35.95;21.50;;;;;;;2.65;100.00;100837.94;4961358;28;20039;-81
2021/12/06 00:29:14;;;;;;;37.60;21.23;;;;;;;2.82;100.00;100865.06;4944791;29;20391;-82
2021/12/06 00:31:39;;;;;;;46.45;20.92;;;;;;;2.69;100.00;100847.66;4977476;28;20134;-82
2021/12/06 00:34:11;;;;;;;38.63;21.35;;;;;;;2.82;100.00;100864.19;4979483;28;20034;-82
2021/12/06 00:36:40;;;;;;;36.92;20.05;;;;;;;2.83;100.00;100855.13;4977993;28;20039;-81
2021/12/06 00:39:09;;;;;;;37.85;21.40;;;;;;;2.92;100.00;100870.94;4977255;28;20495;-81
2021/12/06 00:41:34;;;;;;;36.80;20.95;;;;;;;2.91;100.00;100870.03;4977103;28;20035;-81
2021/12/06 00:44:01;;;;;;;37.05;21.23;;;;;;;2.93;100.00;100869.97;4961672;28;20106;-82
2021/12/06 00:46:27;;;;;;;40.38;21.92;;;;;;;2.92;100.00;100870.94;4961864;29;20507;-81
2021/12/06 00:48:52;;;;;;;42.85;22.05;;;;;;;2.92;100.00;100876.34;4977849;28;20032;-82
2021/12/06 00:51:20;;;;;;;37.95;22.27;;;;;;;2.95;100.00;100886.97;4962124;28;20059;-81
2021/12/06 00:53:45;;;;;;;42.60;22.60;;;;;;;2.90;100.00;100878.22;4945213;29;20050;-82
2021/12/06 00:56:12;;;;;;;40.97;22.95;;;;;;;2.92;100.00;100882.63;4944901;29;20019;-81
2021/12/06 00:58:38;;;;;;;45.97;23.83;;;;;;;2.98;100.00;100888.69;4962083;28;20027;-81
2021/12/06 01:01:06;;;;;;;42.28;23.08;;;;;;;2.93;100.00;100884.34;4947014;29;20042;-81
2021/12/06 01:03:34;;;;;;;41.75;23.45;;;;;;;2.99;100.00;100890.44;4961185;29;20046;-81
2021/12/06 01:06:00;;;;;;;42.17;25.40;;;;;;;2.97;100.00;100890.53;4976946;28;20027;-81
2021/12/06 01:08:25;;;;;;;42.78;24.23;;;;;;;3.02;100.00;100884.91;4944744;28;20114;-81
2021/12/06 01:10:51;;;;;;;40.20;23.80;;;;;;;3.04;100.00;100883.84;4960158;28;20121;-81
2021/12/06 01:13:17;;;;;;;40.53;23.98;;;;;;;3.01;100.00;100894.81;4961458;28;20034;-81
2021/12/06 01:15:43;;;;;;;41.88;24.92;;;;;;;2.86;100.00;100884.72;4943716;29;20031;-81
2021/12/06 01:18:13;;;;;;;49.35;24.17;;;;;;;3.00;100.00;100912.00;4982478;28;20057;-80
2021/12/06 01:20:47;;;;;;;49.22;26.13;;;;;;;2.99;100.00;100914.78;4962120;28;20042;-80
2021/12/06 01:23:15;;;;;;;43.45;24.92;;;;;;;2.84;100.00;100900.16;4961685;28;20039;-80
2021/12/06 01:26:12;;;;;;;42.58;24.77;;;;;;;2.96;100.00;100923.91;4982389;28;20102;-81
2021/12/06 01:31:43;;;;;;;47.03;25.02;;;;;;;2.92;100.00;100927.72;4960399;29;20086;-82
2021/12/06 01:39:44;;;;;;;49.58;24.27;;;;;;;2.94;100.00;100951.03;4949471;29;20082;-81
2021/12/06 01:42:10;;;;;;;45.78;25.52;;;;;;;2.93;100.00;100945.69;4975426;28;20039;-80
2021/12/06 01:44:42;;;;;;;43.97;24.70;;;;;;;2.97;100.00;100955.44;4952560;28;20398;-81
2021/12/06 01:47:12;;;;;;;41.90;24.67;;;;;;;2.99;100.00;100955.34;4956107;29;20575;-82
2021/12/06 01:49:46;;;;;;;48.22;25.80;;;;;;;2.92;100.00;100938.53;4943640;29;20106;-82
2021/12/06 01:52:21;;;;;;;42.58;23.90;;;;;;;3.00;100.00;100946.28;4944151;29;20031;-82
2021/12/06 01:54:47;;;;;;;46.88;23.70;;;;;;;3.01;100.00;100957.03;4961761;28;20031;-81
2021/12/06 01:57:13;;;;;;;44.83;25.42;;;;;;;3.01;100.00;100958.84;4964205;28;20038;-81
2021/12/06 01:59:39;;;;;;;46.35;25.38;;;;;;;3.01;100.00;100961.56;4975402;28;20047;-81
2021/12/06 02:02:06;;;;;;;48.60;26.52;;;;;;;3.01;100.00;100957.03;4959771;29;20027;-81
2021/12/06 02:04:34;;;;;;;45.00;25.60;;;;;;;2.98;100.00;100961.69;4957847;28;20036;-82
2021/12/06 02:07:03;;;;;;;49.13;26.77;;;;;;;2.97;100.00;100955.44;4960101;29;20050;-82
2021/12/06 02:09:30;;;;;;;45.05;26.48;;;;;;;2.92;100.00;100952.06;4963820;28;20038;-82
2021/12/06 02:11:59;;;;;;;52.67;27.92;;;;;;;3.05;100.00;100976.69;4973570;28;20066;-82
2021/12/06 02:17:19;;;;;;;45.20;25.77;;;;;;;3.06;100.00;100975.75;4960690;28;20042;-81
2021/12/06 02:19:49;;;;;;;48.85;27.38;;;;;;;3.07;100.00;100974.81;4964777;29;20035;-82
2021/12/06 02:22:26;;;;;;;46.00;27.27;;;;;;;3.05;100.00;100971.28;4959653;29;20035;-82
2021/12/06 02:24:55;;;;;;;48.22;25.92;;;;;;;3.00;100.00;100968.81;4959140;29;20040;-82
2021/12/06 02:27:23;;;;;;;45.45;26.42;;;;;;;3.01;100.00;100977.78;4960849;28;20083;-81
2021/12/06 02:29:51;;;;;;;47.45;27.42;;;;;;;3.02;100.00;100975.03;4958882;28;20047;-82
2021/12/06 02:32:19;;;;;;;45.92;26.60;;;;;;;3.03;100.00;100970.47;4959356;29;20047;-82
2021/12/06 02:34:48;;;;;;;49.10;27.20;;;;;;;2.99;100.00;100964.34;4960435;29;20039;-81
2021/12/06 02:37:17;;;;;;;49.92;26.67;;;;;;;3.03;100.00;100974.06;4939341;29;20035;-81
2021/12/06 02:39:43;;;;;;;44.13;25.85;;;;;;;3.08;100.00;100977.44;4939740;29;20044;-82
2021/12/06 02:42:14;;;;;;;46.17;25.98;;;;;;;2.98;100.00;100961.69;4961363;28;20083;-82
2021/12/06 02:44:39;;;;;;;46.08;25.63;;;;;;;3.03;100.00;100976.75;4956503;28;20035;-82
2021/12/06 02:47:05;;;;;;;49.20;24.90;;;;;;;3.03;100.00;100979.47;4972662;28;20459;-81
2021/12/06 02:49:31;;;;;;;44.72;25.55;;;;;;;3.00;100.00;100979.63;4941639;29;20036;-82
2021/12/06 02:51:57;;;;;;;55.90;27.35;;;;;;;3.00;100.00;100985.03;4970523;28;20056;-82
2021/12/06 02:54:24;;;;;;;49.97;26.73;;;;;;;2.92;100.00;100979.09;4959205;29;20101;-82
2021/12/06 02:56:55;;;;;;;44.42;25.88;;;;;;;2.96;100.00;100983.41;4959921;29;20031;-82
2021/12/06 02:59:25;;;;;;;50.20;26.70;;;;;;;2.95;100.00;100989.75;4960525;29;20023;-82
2021/12/06 03:01:56;;;;;;;56.38;27.48;;;;;;;2.93;100.00;100978.13;4942935;29;20086;-82
2021/12/06 03:04:22;;;;;;;45.13;25.67;;;;;;;2.96;100.00;100985.25;4959339;28;20541;-81
2021/12/06 03:06:52;;;;;;;51.30;28.67;;;;;;;2.94;100.00;100996.13;4943123;29;20027;-82
2021/12/06 03:09:21;;;;;;;48.65;27.38;;;;;;;2.96;100.00;100996.94;4961067;28;20103;-81
2021/12/06 03:11:54;;;;;;;46.15;26.92;;;;;;;2.97;100.00;100996.00;4960510;28;20083;-81
2021/12/06 03:14:23;;;;;;;53.20;27.88;;;;;;;2.95;100.00;100989.75;4958662;29;20423;-82
2021/12/06 03:16:51;;;;;;;54.92;29.23;;;;;;;2.79;100.00;100977.88;4969438;28;20032;-82
2021/12/06 03:19:16;;;;;;;52.85;27.95;;;;;;;2.93;100.00;101007.88;4963568;28;20546;-81
2021/12/06 03:21:42;;;;;;;45.75;27.75;;;;;;;3.00;100.00;101014.78;4944350;29;20047;-81
2021/12/06 03:24:08;;;;;;;52.88;28.75;;;;;;;2.96;100.00;101018.56;4968162;28;20028;-81
2021/12/06 03:26:34;;;;;;;53.70;28.38;;;;;;;2.96;100.00;101013.16;4958819;29;20137;-81
2021/12/06 03:29:00;;;;;;;48.38;28.02;;;;;;;2.94;100.00;101015.06;4958838;29;20035;-81
2021/12/06 03:31:27;;;;;;;52.97;28.65;;;;;;;2.97;100.00;101014.91;4958390;29;20023;-80
2021/12/06 03:33:54;;;;;;;52.95;29.05;;;;;;;2.91;100.00;101010.66;4958342;28;20035;-81
2021/12/06 03:36:22;;;;;;;52.05;28.05;;;;;;;2.97;100.00;101020.34;4954442;28;20027;-80
2021/12/06 03:38:48;;;;;;;53.85;27.10;;;;;;;2.98;100.00;101024.78;4974250;28;20055;-80
2021/12/06 03:41:16;;;;;;;51.63;28.60;;;;;;;2.94;100.00;101026.75;4958071;29;20035;-80
2021/12/06 03:43:42;;;;;;;50.95;28.48;;;;;;;2.97;100.00;101031.16;4951937;28;20098;-81
2021/12/06 03:46:09;;;;;;;52.78;27.88;;;;;;;2.98;100.00;101029.31;4949457;29;20036;-81
2021/12/06 03:48:35;;;;;;;51.80;28.83;;;;;;;2.92;100.00;101034.06;4940762;29;20031;-81
2021/12/06 03:51:01;;;;;;;52.45;28.55;;;;;;;2.89;100.00;101034.19;4957910;29;20054;-81
2021/12/06 03:53:28;;;;;;;60.28;27.88;;;;;;;2.88;100.00;101040.53;4973875;28;20092;-80
2021/12/06 03:55:54;;;;;;;59.67;28.42;;;;;;;2.90;100.00;101030.56;4941432;29;20019;-81
2021/12/06 03:58:20;;;;;;;51.35;28.08;;;;;;;2.94;100.00;101039.41;4974181;28;20070;-81
2021/12/06 04:00:46;;;;;;;59.08;27.27;;;;;;;2.88;100.00;101028.84;4970818;28;20031;-81
2021/12/06 04:03:12;;;;;;;52.15;26.92;;;;;;;2.81;100.00;101019.25;4951564;29;20062;-81
2021/12/06 04:05:37;;;;;;;49.75;27.42;;;;;;;2.79;100.00;101040.06;4959452;28;20028;-82
2021/12/06 04:08:04;;;;;;;48.80;26.90;;;;;;;2.91;100.00;101043.09;4961161;29;20502;-81
2021/12/06 04:10:30;;;;;;;48.22;26.67;;;;;;;2.82;100.00;101046.22;4961889;28;20023;-81
2021/12/06 04:12:57;;;;;;;51.35;27.60;;;;;;;2.70;100.00;101034.09;4963627;28;20046;-81
2021/12/06 04:15:23;;;;;;;55.38;29.00;;;;;;;2.74;100.00;101038.44;4961643;28;20505;-81
2021/12/06 04:17:49;;;;;;;58.47;29.30;;;;;;;2.71;100.00;101043.97;4978024;28;20028;-81
2021/12/06 04:20:16;;;;;;;55.03;28.23;;;;;;;2.68;100.00;101041.41;4968248;28;20055;-81
2021/12/06 04:22:42;;;;;;;56.97;28.30;;;;;;;2.63;100.00;101034.47;4945759;28;20043;-81
2021/12/06 04:25:12;;;;;;;50.85;27.77;;;;;;;2.61;100.00;101033.63;4962438;28;20136;-81
2021/12/06 04:27:38;;;;;;;55.92;29.10;;;;;;;2.59;100.00;101036.38;4964401;28;20027;-80
2021/12/06 04:30:08;;;;;;;54.00;27.25;;;;;;;2.49;100.00;101040.44;4953933;28;20071;-81
2021/12/06 04:32:33;;;;;;;53.10;27.55;;;;;;;2.39;100.00;101032.75;4975620;28;20568;-81
2021/12/06 04:34:59;;;;;;;59.33;27.17;;;;;;;2.39;100.00;101039.94;4957746;28;20039;-82
2021/12/06 04:37:25;;;;;;;47.10;26.83;;;;;;;2.33;100.00;101043.81;4979066;28;20460;-81
2021/12/06 04:39:52;;;;;;;50.72;29.48;;;;;;;2.37;100.00;101056.22;4976981;28;20114;-81
2021/12/06 04:42:20;;;;;;;57.05;28.65;;;;;;;2.23;100.00;101044.22;4959655;29;20031;-81
2021/12/06 04:44:45;;;;;;;51.28;27.65;;;;;;;2.13;100.00;101046.44;4959093;28;20118;-81
2021/12/06 04:47:11;;;;;;;49.65;28.60;;;;;;;2.16;100.00;101055.28;4976824;28;20042;-81
2021/12/06 04:49:36;;;;;;;56.42;27.67;;;;;;;2.16;100.00;101047.19;4961018;29;20082;-81
2021/12/06 04:52:05;;;;;;;52.40;27.98;;;;;;;2.12;100.00;101044.69;4960973;29;20043;-81
2021/12/06 04:54:35;;;;;;;51.33;27.25;;;;;;;2.01;100.00;101047.81;4944209;29;20039;-79
2021/12/06 04:57:38;;;;;;;50.45;27.33;;;;;;;1.90;100.00;101041.97;4954579;29;20039;-80
2021/12/06 05:00:21;;;;;;;61.95;29.38;;;;;;;1.90;100.00;101060.88;4978417;28;20043;-80
2021/12/06 05:02:47;;;;;;;53.22;28.40;;;;;;;1.89;100.00;101062.69;4945094;29;20046;-80
2021/12/06 05:05:18;;;;;;;51.80;26.70;;;;;;;1.69;100.00;101060.78;4960750;28;20031;-80
2021/12/06 05:07:53;;;;;;;50.63;26.77;;;;;;;1.66;100.00;101074.41;4960328;28;20534;-81
2021/12/06 05:10:19;;;;;;;54.70;27.92;;;;;;;1.60;100.00;101071.94;4943948;29;20054;-81
2021/12/06 05:12:46;;;;;;;52.83;27.30;;;;;;;1.68;100.00;101082.44;4961395;28;20039;-81
2021/12/06 05:15:13;;;;;;;57.03;28.40;;;;;;;1.61;100.00;101069.19;4975469;28;20054;-80
2021/12/06 05:17:39;;;;;;;56.33;28.10;;;;;;;1.59;100.00;101068.34;4973059;28;20091;-79
2021/12/06 05:20:05;;;;;;;49.40;29.10;;;;;;;1.61;100.00;101079.09;4941490;29;20107;-81
2021/12/06 05:22:32;;;;;;;57.03;26.95;;;;;;;1.54;100.00;101083.84;4956859;29;20507;-80
2021/12/06 05:24:58;;;;;;;51.75;26.35;;;;;;;1.38;100.00;101069.19;4975212;28;20036;-83
2021/12/06 05:27:28;;;;;;;58.05;25.92;;;;;;;1.30;100.00;101088.34;4955740;29;20031;-81
2021/12/06 05:29:58;;;;;;;53.33;26.63;;;;;;;1.27;100.00;101102.81;4962142;29;20035;-82
2021/12/06 05:32:30;;;;;;;46.28;26.02;;;;;;;1.21;100.00;101086.84;4977729;28;20487;-81
2021/12/06 05:35:02;;;;;;;51.05;25.38;;;;;;;1.16;100.00;101088.81;4976894;28;20027;-81
2021/12/06 05:37:29;;;;;;;150.18;24.63;;;;;;;1.00;100.00;101093.91;4960834;29;20027;-81
2021/12/06 05:39:55;;;;;;;71.00;18.10;;;;;;;0.95;100.00;101086.91;4960731;28;20031;-80
2021/12/06 05:42:21;;;;;;;36.22;19.35;;;;;;;0.87;100.00;101096.16;4975695;28;20028;-80
2021/12/06 05:44:47;;;;;;;27.33;17.92;;;;;;;0.90;100.00;101098.75;4960216;28;20031;-80
2021/12/06 05:47:13;;;;;;;29.13;18.95;;;;;;;0.87;100.00;101108.72;4959651;29;20249;-81
2021/12/06 05:49:41;;;;;;;36.95;19.40;;;;;;;0.82;100.00;101108.00;4975691;28;20118;-81
2021/12/06 05:52:06;;;;;;;43.58;22.52;;;;;;;0.83;100.00;101113.34;4972461;28;20058;-80
2021/12/06 05:54:33;;;;;;;42.17;24.40;;;;;;;0.95;100.00;101103.06;4960258;28;20035;-80
2021/12/06 05:57:00;;;;;;;47.80;25.83;;;;;;;0.88;100.00;101087.13;4960498;29;20039;-80
2021/12/06 05:59:26;;;;;;;43.05;22.92;;;;;;;0.76;100.00;101092.94;4960184;28;20463;-80
2021/12/06 06:01:54;;;;;;;47.45;22.38;;;;;;;0.72;100.00;101108.34;4959294;28;20077;-78
2021/12/06 06:04:20;;;;;;;56.45;21.00;;;;;;;0.62;100.00;101100.63;4958459;28;20097;-79
2021/12/06 06:06:45;;;;;;;78.05;23.30;;;;;;;0.46;100.00;101095.75;4953228;29;20083;-79
2021/12/06 06:09:11;;;;;;;230.13;29.80;;;;;;;0.62;100.00;101087.16;4943447;28;20102;-79
2021/12/06 06:11:37;;;;;;;55.95;26.00;;;;;;;0.69;100.00;101096.81;4965435;28;20074;-78
2021/12/06 06:14:06;;;;;;;174.73;28.65;;;;;;;0.54;100.00;101096.38;4956798;29;20039;-80
2021/12/06 06:16:36;;;;;;;55.63;25.92;;;;;;;0.74;100.00;101108.31;4954660;29;20039;-79
2021/12/06 06:19:03;;;;;;;127.57;26.63;;;;;;;0.61;100.00;101098.84;4965815;28;20111;-80
2021/12/06 06:21:29;;;;;;;149.07;26.45;;;;;;;0.51;100.00;101103.69;4961892;28;20043;-80
2021/12/06 06:23:55;;;;;;;89.38;27.00;;;;;;;0.54;100.00;101112.53;4950397;28;20037;-80
2021/12/06 06:26:20;;;;;;;172.80;25.77;;;;;;;0.50;100.00;101113.56;4939823;29;20469;-80
2021/12/06 06:28:46;;;;;;;227.50;29.50;;;;;;;0.52;100.00;101116.22;4962085;28;20031;-80
2021/12/06 06:31:11;;;;;;;197.95;26.17;;;;;;;0.46;100.00;101119.09;4959222;29;20046;-81
2021/12/06 06:33:37;;;;;;;220.32;29.08;;;;;;;0.38;100.00;101116.69;4940863;29;20050;-80
2021/12/06 06:36:03;;;;;;;205.40;26.08;;;;;;;0.37;100.00;101114.91;4956807;29;20027;-81
2021/12/06 06:38:28;;;;;;;141.60;25.55;;;;;;;0.31;100.00;101115.09;4969221;28;20070;-81
2021/12/06 06:40:53;;;;;;;210.52;26.95;;;;;;;0.44;100.00;101129.91;4970276;28;20123;-81
2021/12/06 06:43:19;;;;;;;145.18;26.52;;;;;;;0.23;100.00;101115.38;4969514;28;20031;-80
2021/12/06 06:45:45;;;;;;;175.70;29.05;;;;;;;0.35;100.00;101128.41;4955022;28;20506;-80
2021/12/06 06:48:11;;;;;;;232.70;26.90;;;;;;;0.21;100.00;101130.66;4954018;28;20027;-81
2021/12/06 06:50:37;;;;;;;228.85;27.63;;;;;;;0.30;100.00;101125.00;4943205;28;20403;-80
2021/12/06 06:53:03;;;;;;;353.83;29.92;;;;;;;0.31;100.00;101129.47;4941426;29;20082;-81
2021/12/06 06:55:28;;;;;;;237.57;28.70;;;;;;;0.39;100.00;101137.28;4958241;28;20459;-80
2021/12/06 06:57:54;;;;;;;215.70;28.80;;;;;;;0.35;100.00;101144.56;4958105;29;20114;-80
2021/12/06 07:00:27;;;;;;;276.38;29.65;;;;;;;0.36;100.00;101153.53;4956238;28;20386;-80
2021/12/06 07:02:53;;;;;;;367.00;31.42;;;;;;;0.33;100.00;101143.75;4957148;29;20051;-82
2021/12/06 07:05:18;;;;;;;245.15;31.60;;;;;;;0.37;100.00;101152.59;4956816;29;20033;-78
2021/12/06 07:07:44;;;;;;;397.42;35.78;;;;;;;0.30;100.00;101141.16;4962716;28;20040;-79
2021/12/06 07:10:10;;;;;;;370.38;36.03;;;;;;;0.40;100.00;101147.13;4956570;28;20031;-78
2021/12/06 07:12:44;;;;;;;389.08;33.33;;;;;;;0.33;100.00;101150.97;4957631;28;20039;-78
2021/12/06 07:15:12;;;;;;;414.73;34.83;;;;;;;0.42;100.00;101144.38;4958453;28;20043;-79
2021/12/06 07:17:42;;;;;;;390.77;37.00;;;;;;;0.42;100.00;101150.66;4955763;28;20045;-78
2021/12/06 07:20:12;;;;;;;354.45;32.78;;;;;;;0.34;100.00;101147.31;4956889;28;20122;-78
2021/12/06 07:22:37;;;;;;;476.23;38.45;;;;;;;0.36;100.00;101157.13;4970124;28;20032;-79
2021/12/06 07:25:05;;;;;;;388.20;39.30;;;;;;;0.44;100.00;101156.84;4970426;28;20093;-80
2021/12/06 07:27:31;;;;;;;296.33;37.33;;;;;;;0.57;100.00;101156.47;4946787;29;20047;-80
2021/12/06 07:29:57;;;;;;;313.50;39.35;;;;;;;0.79;100.00;101157.53;4957137;29;20042;-80
2021/12/06 07:32:23;;;;;;;293.15;33.80;;;;;;;0.59;100.00;101160.00;4972973;28;20098;-79
2021/12/06 07:34:50;;;;;;;340.15;37.53;;;;;;;0.60;100.00;101170.72;4957889;28;20040;-79
2021/12/06 07:37:15;;;;;;;319.48;35.17;;;;;;;0.62;100.00;101162.59;4940625;29;20039;-79
2021/12/06 07:39:41;;;;;;;391.52;38.65;;;;;;;0.61;100.00;101166.19;4942987;29;20031;-78
2021/12/06 07:42:11;;;;;;;365.77;39.25;;;;;;;0.58;100.00;101174.41;4959707;28;20042;-78
2021/12/06 07:44:37;;;;;;;321.63;38.05;;;;;;;0.70;100.00;101176.69;4973231;28;20484;-79
2021/12/06 07:47:03;;;;;;;286.90;39.00;;;;;;;0.76;100.00;101186.41;4939954;29;20031;-77
2021/12/06 07:49:29;;;;;;;571.92;51.65;;;;;;;0.82;100.00;101186.16;4949701;28;20090;-77
2021/12/06 07:51:54;;;;;;;560.63;41.97;;;;;;;0.81;100.00;101195.22;4970595;28;20442;-77
2021/12/06 07:54:20;;;;;;;524.13;42.25;;;;;;;0.82;100.00;101183.47;4955486;28;20664;-77
2021/12/06 07:56:45;;;;;;;579.72;43.17;;;;;;;0.82;100.00;101191.56;4959364;28;20395;-79
2021/12/06 07:59:11;;;;;;;407.25;41.35;;;;;;;0.87;100.00;101184.19;4960208;28;20045;-78
2021/12/06 08:01:37;;;;;;;633.17;49.65;;;;;;;0.84;100.00;101193.28;4971051;28;20038;-78
2021/12/06 08:04:03;;;;;;;509.63;43.97;;;;;;;0.88;100.00;101189.53;4957240;28;20114;-78
2021/12/06 08:06:29;;;;;;;529.25;39.95;;;;;;;0.82;100.00;101188.88;4953334;28;20492;-79
2021/12/06 08:08:55;;;;;;;430.95;39.03;;;;;;;0.74;100.00;101189.16;4954398;28;20403;-77
2021/12/06 08:11:21;;;;;;;427.48;37.80;;;;;;;0.77;100.00;101182.75;4953329;28;20102;-78
2021/12/06 08:13:56;;;;;;;314.52;35.40;;;;;;;0.73;100.00;101185.53;4958172;28;20043;-79
2021/12/06 08:16:32;;;;;;;294.55;33.35;;;;;;;0.75;100.00;101184.63;4957491;28;20126;-78
2021/12/06 08:18:59;;;;;;;278.38;35.53;;;;;;;0.71;100.00;101181.16;4952681;28;20137;-77
2021/12/06 08:21:26;;;;;;;315.48;35.97;;;;;;;0.77;100.00;101178.28;4955034;28;20034;-77
2021/12/06 08:23:53;;;;;;;215.38;36.47;;;;;;;0.69;100.00;101159.66;4967344;28;20079;-77
2021/12/06 08:26:22;;;;;;;297.15;35.10;;;;;;;0.70;100.00;101145.22;4957393;28;20031;-77
2021/12/06 08:28:48;;;;;;;163.05;30.27;;;;;;;0.81;100.00;101152.97;4954063;28;20122;-78
2021/12/06 08:31:16;;;;;;;216.15;34.00;;;;;;;0.74;100.00;101154.09;4971901;28;20035;-77
2021/12/06 08:33:42;;;;;;;187.15;32.88;;;;;;;0.82;100.00;101168.22;4969182;28;20421;-76
2021/12/06 08:36:09;;;;;;;258.65;34.92;;;;;;;0.84;100.00;101154.69;4972120;28;20032;-77
2021/12/06 08:38:36;;;;;;;227.50;33.30;;;;;;;0.79;100.00;101152.13;4955495;28;20043;-77
2021/12/06 08:41:08;;;;;;;201.70;36.28;;;;;;;0.86;100.00;101153.69;4954574;29;20091;-77
2021/12/06 08:43:34;;;;;;;170.57;33.85;;;;;;;0.91;100.00;101150.84;4957987;28;20125;-77
2021/12/06 08:46:08;;;;;;;181.23;35.63;;;;;;;1.05;100.00;101161.13;4940763;28;20035;-77
2021/12/06 08:48:36;;;;;;;196.80;35.65;;;;;;;1.05;100.00;101147.66;4958312;28;20054;-79
2021/12/06 08:51:07;;;;;;;205.40;38.08;;;;;;;1.14;100.00;101159.94;4954652;28;20129;-78
2021/12/06 08:53:33;;;;;;;162.32;36.58;;;;;;;1.19;100.00;101163.34;4940214;29;20058;-77
2021/12/06 08:55:59;;;;;;;110.63;35.75;;;;;;;1.26;100.00;101163.09;4957052;29;20055;-78
2021/12/06 08:58:25;;;;;;;129.20;39.10;;;;;;;1.32;100.00;101166.50;4968028;28;20043;-80
2021/12/06 09:00:50;;;;;;;121.00;37.25;;;;;;;1.33;100.00;101176.34;4966839;28;20040;-78
2021/12/06 09:03:19;;;;;;;129.45;38.35;;;;;;;1.35;100.00;101174.50;4953453;28;20059;-78
2021/12/06 09:05:48;;;;;;;205.70;41.78;;;;;;;1.34;100.00;101194.28;4972576;28;20103;-79
2021/12/06 09:08:14;;;;;;;125.60;38.05;;;;;;;1.45;100.00;101189.41;4961300;28;20446;-79
2021/12/06 09:10:40;;;;;;;156.63;40.13;;;;;;;1.47;100.00;101195.63;4972917;28;20035;-79
2021/12/06 09:13:07;;;;;;;156.15;38.65;;;;;;;1.54;100.00;101202.56;4972420;28;20109;-78
2021/12/06 09:15:32;;;;;;;136.57;41.28;;;;;;;1.50;100.00;101209.00;4958673;28;20051;-78
2021/12/06 09:17:59;;;;;;;189.07;40.70;;;;;;;1.59;100.00;101214.09;4948575;28;20039;-78
2021/12/06 09:20:30;;;;;;;202.90;40.40;;;;;;;1.52;100.00;101200.84;4972995;28;20042;-79
2021/12/06 09:22:56;;;;;;;198.52;41.33;;;;;;;1.59;100.00;101206.00;4964483;28;20037;-78
2021/12/06 09:25:23;;;;;;;181.68;39.58;;;;;;;1.73;100.00;101199.19;4950465;28;20114;-78
2021/12/06 09:27:49;;;;;;;167.25;38.80;;;;;;;1.70;100.00;101202.88;4940345;28;20027;-78
2021/12/06 09:30:19;;;;;;;135.38;35.58;;;;;;;1.59;100.00;101203.28;4954587;28;20039;-79
2021/12/06 09:32:45;;;;;;;118.40;36.88;;;;;;;1.90;100.00;101215.63;4951931;28;20042;-77
2021/12/06 09:35:14;;;;;;;150.65;35.80;;;;;;;1.63;100.00;101209.44;4954412;29;20043;-79
2021/12/06 09:37:40;;;;;;;121.57;36.25;;;;;;;1.55;100.00;101207.00;4953788;28;20066;-78
2021/12/06 09:40:08;;;;;;;109.70;35.40;;;;;;;1.72;100.00;101202.81;4951767;28;20123;-77
2021/12/06 09:42:36;;;;;;;137.30;35.13;;;;;;;1.72;100.00;101206.44;4953232;28;20055;-78
2021/12/06 09:45:04;;;;;;;164.68;38.47;;;;;;;1.67;100.00;101208.38;4948323;29;20079;-79
2021/12/06 09:47:31;;;;;;;140.73;36.70;;;;;;;1.70;100.00;101202.00;4958324;28;20042;-78
2021/12/06 09:49:57;;;;;;;180.73;39.63;;;;;;;1.71;100.00;101203.78;4954316;28;20110;-78
2021/12/06 09:52:23;;;;;;;155.77;35.67;;;;;;;1.78;100.00;101203.47;4957233;28;20086;-79
2021/12/06 09:54:49;;;;;;;140.38;38.42;;;;;;;1.84;100.00;101197.84;4952509;28;20043;-78
2021/12/06 09:57:15;;;;;;;161.48;41.17;;;;;;;1.90;100.00;101196.72;4954009;28;20037;-79
2021/12/06 09:59:43;;;;;;;160.98;41.35;;;;;;;1.93;100.00;101198.44;4965883;28;20121;-78
2021/12/06 10:02:14;;;;;;;181.68;39.20;;;;;;;1.93;100.00;101207.41;4954870;29;20390;-77
2021/12/06 10:04:45;;;;;;;147.85;37.13;;;;;;;1.81;100.00;101197.97;4969359;28;20452;-77
2021/12/06 10:07:11;;;;;;;132.52;35.63;;;;;;;1.87;100.00;101198.66;4952523;29;20031;-77
2021/12/06 10:09:38;;;;;;;124.88;38.00;;;;;;;1.97;100.00;101202.81;4954265;28;20039;-77
2021/12/06 10:12:04;;;;;;;218.52;41.72;;;;;;;1.87;100.00;101198.66;4951199;29;20431;-77
2021/12/06 10:14:30;;;;;;;161.95;41.50;;;;;;;2.00;100.00;101199.97;4951914;28;20051;-77
2021/12/06 10:16:57;;;;;;;143.10;37.40;;;;;;;1.96;100.00;101199.22;4952152;29;20034;-77
2021/12/06 10:19:25;;;;;;;185.45;40.00;;;;;;;1.99;100.00;101195.53;4968591;28;20031;-77
2021/12/06 10:21:52;;;;;;;161.27;40.40;;;;;;;2.05;100.00;101199.78;4937009;29;20043;-77
2021/12/06 10:24:21;;;;;;;159.30;40.65;;;;;;;2.09;100.00;101193.34;4951477;29;20036;-77
2021/12/06 10:26:47;;;;;;;132.38;39.33;;;;;;;1.99;100.00;101176.63;4950584;28;20074;-77
2021/12/06 10:29:23;;;;;;;149.18;41.30;;;;;;;2.05;100.00;101173.69;4964806;28;20071;-77
2021/12/06 10:31:53;;;;;;;153.70;40.00;;;;;;;2.14;100.00;101172.44;4948007;28;20042;-77
2021/12/06 10:34:27;;;;;;;117.25;35.42;;;;;;;2.10;100.00;101159.97;4939246;28;20042;-77
2021/12/06 10:36:55;;;;;;;166.20;40.65;;;;;;;2.09;100.00;101161.81;4952055;29;20038;-77
2021/12/06 10:39:22;;;;;;;126.13;37.15;;;;;;;2.19;100.00;101159.63;4953532;28;20031;-78
2021/12/06 10:41:53;;;;;;;124.53;34.47;;;;;;;2.11;100.00;101153.66;4954219;28;20035;-78
2021/12/06 10:44:19;;;;;;;124.82;36.63;;;;;;;2.21;100.00;101149.66;4937406;29;20031;-77
2021/12/06 10:46:49;;;;;;;138.43;37.38;;;;;;;2.18;100.00;101155.16;4968800;28;20612;-78
2021/12/06 10:49:26;;;;;;;122.80;35.05;;;;;;;2.20;100.00;101150.59;4955235;29;20042;-77
2021/12/06 10:51:51;;;;;;;100.22;31.55;;;;;;;2.32;100.00;101139.28;4945663;28;20134;-76
2021/12/06 10:54:33;;;;;;;131.13;35.70;;;;;;;2.16;100.00;101130.03;4953489;29;20406;-77
2021/12/06 10:57:02;;;;;;;149.48;36.15;;;;;;;2.09;100.00;101133.94;4949430;28;20122;-78
2021/12/06 10:59:31;;;;;;;124.57;34.65;;;;;;;2.09;100.00;101126.72;4947742;28;21508;-78
2021/12/06 11:02:04;;;;;;;133.27;35.25;;;;;;;2.14;100.00;101132.81;4950781;29;20027;-80
2021/12/06 11:04:30;;;;;;;115.40;30.13;;;;;;;2.11;100.00;101135.63;4950358;28;20094;-77
2021/12/06 11:07:05;;;;;;;110.75;30.83;;;;;;;2.05;100.00;101129.59;4966560;28;20500;-77
2021/12/06 11:09:31;;;;;;;121.10;29.30;;;;;;;2.05;100.00;101134.97;4950927;28;20459;-77
2021/12/06 11:11:59;;;;;;;133.77;29.80;;;;;;;2.04;100.00;101128.72;4950224;28;20122;-76
2021/12/06 11:14:32;;;;;;;109.20;28.58;;;;;;;2.08;100.00;101124.94;4944162;29;20467;-77
2021/12/06 11:16:59;;;;;;;;;;;;;;;1.99;100.00;101115.38;4955728;28;20085;-78
2021/12/06 11:19:26;;;;;;;73.35;22.73;;;;;;;2.01;100.00;101110.78;4956599;28;20009;-78
2021/12/06 11:21:54;;;;;;;97.93;26.50;;;;;;;1.92;100.00;101097.69;4956001;28;20063;-77